Flight Track Log - Related Links

Times and Time Zones

All times are in EDT time to prevent confusion due to time zone crossing. See the EJA122 flight status page for this flight to view local times or setup timezone preferences in your user account.

Time Position Orientation Groundspeed Altitude Reporting Facility
EDT Latitude Longitude Course Direction KTS MPH feet Rate Location/Type
Tue 02:57:24 PM 37.4197 -77.6289 308° West 210 242 3,000  Level Washington Center
Tue 02:58:25 PM 37.4564 -77.6875 308° West 224 258 5,800 2,754 Climbing Washington Center
Tue 02:59:26 PM 37.5181 -77.7389 327° Northwest 237 273 8,600 2,420 Climbing Washington Center
Tue 03:00:24 PM 37.5836 -77.7931 327° Northwest 262 302 10,600 1,866 Climbing Washington Center
Tue 03:01:25 PM 37.6617 -77.8558 328° Northwest 292 336 12,300 1,770 Climbing Washington Center
Tue 03:02:26 PM 37.7397 -77.9211 327° Northwest 324 373 14,200 1,672 Climbing Washington Center
Tue 03:03:27 PM 37.8197 -77.9892 326° Northwest 337 388 15,700 1,613 Climbing Washington Center
Tue 03:04:25 PM 37.8978 -78.0550 326° Northwest 342 394 17,400 1,678 Climbing Washington Center
Tue 03:05:25 PM 37.9797 -78.1208 328° Northwest 342 394 19,000 1,488 Climbing Washington Center
Tue 03:06:26 PM 38.0617 -78.1894 327° Northwest 342 394 20,400 1,513 Climbing Washington Center
Tue 03:07:24 PM 38.1481 -78.2453 333° Northwest 342 394 22,000 1,513 Climbing Washington Center
Tue 03:08:25 PM 38.2344 -78.3039 332° Northwest 342 394 23,400 1,230 Climbing Washington Center
Tue 03:09:26 PM 38.3228 -78.3628 332° Northwest 347 399 24,500 1,068 Climbing Washington Center
Tue 03:10:23 PM 38.4089 -78.4242 331° Northwest 347 399 25,500 1,017 Climbing Washington Center
Tue 03:11:24 PM 38.4992 -78.4861 332° Northwest 347 399 26,500 984 Climbing Washington Center
Tue 03:12:25 PM 38.5894 -78.5481 332° Northwest 352 405 27,500 738 Climbing Washington Center
Tue 03:13:26 PM 38.6817 -78.6128 331° Northwest 358 412 28,000 252 Climbing Washington Center
Tue 03:14:24 PM 38.7781 -78.6781 332° Northwest 376 433 28,000  Level Washington Center
Tue 03:15:25 PM 38.8803 -78.7517 331° Northwest 397 457 28,000  Level Washington Center
Tue 03:16:26 PM 38.9828 -78.8203 333° Northwest 409 471 28,000  Level Washington Center
Tue 03:17:27 PM 39.0767 -78.8858 332° Northwest 409 471 28,000  Level Washington Center
Tue 03:18:24 PM 39.1831 -78.9603 332° Northwest 414 476 28,000  Level Washington Center
Tue 03:20:10 PM 39.3839 -79.0658 338° Northwest 456 525 28,000  Level Cleveland Center
Tue 03:21:10 PM 39.4969 -79.1197 340° North 451 519 28,000  Level Cleveland Center
Tue 03:22:10 PM 39.6125 -79.1792 338° Northwest 451 519 28,000  Level Cleveland Center
Tue 03:23:10 PM 39.7278 -79.2336 340° North 446 513 28,000  Level Cleveland Center
Tue 03:24:10 PM 39.8472 -79.2825 343° North 441 507 28,000  Level Cleveland Center
Tue 03:25:10 PM 39.9744 -79.2989 354° North 441 507 28,000 -1,250 Level Cleveland Center
Tue 03:26:10 PM 40.1039 -79.3183 353° North 455 524 25,500 -2,000 Descending Cleveland Center
Tue 03:27:10 PM 40.2208 -79.3350 354° North 449 517 24,000 -950 Descending Cleveland Center
Tue 03:28:10 PM 40.3442 -79.3519 354° North 442 509 23,600 -950 Descending Cleveland Center
Tue 03:29:10 PM 40.4672 -79.3686 354° North 442 509 22,100 -1,350 Descending Cleveland Center
Tue 03:30:10 PM 40.5861 -79.3828 355° North 442 509 20,900 -1,600 Descending Cleveland Center
Tue 03:31:10 PM 40.7031 -79.4000 354° North 435 501 18,900 -2,100 Descending Cleveland Center
Tue 03:32:10 PM 40.8158 -79.4117 356° North 420 483 16,700 -2,000 Descending Cleveland Center
Tue 03:33:10 PM 40.9181 -79.4292 353° North 395 455 14,900 -1,750 Descending Cleveland Center
Tue 03:34:10 PM 41.0061 -79.4769 338° Northwest 348 400 13,200 -1,800 Descending Cleveland Center
Tue 03:35:10 PM 41.0797 -79.5556 321° Northwest 337 388 11,300 -1,450 Descending Cleveland Center
Tue 03:36:10 PM 41.1578 -79.6372 322° Northwest 342 394 10,300 -1,050 Descending Cleveland Center
Tue 03:37:10 PM 41.2208 -79.7025 322° Northwest 324 373 9,200 -1,800 Descending Cleveland Center
Tue 03:38:10 PM 41.2775 -79.7597 323° Northwest 284 327 6,700 -2,350 Descending Cleveland Center
Tue 03:39:10 PM 41.3425 -79.8281 322° Northwest 269 310 4,500 650 Descending Cleveland Center
Tue 03:40:10 PM 41.3992 -79.8911 320° Northwest 269 310 8,000 1,750 Climbing Cleveland Center
Tue 03:41:10 PM 41.4581 -79.9514 323° Northwest 269 310 8,000  Level Cleveland Center
Tue 03:42:10 PM 41.5144 -80.0147 320° Northwest 269 310 8,000  Level Cleveland Center
Tue 03:43:10 PM 41.5606 -80.0642 321° Northwest 269 310 8,000  Level Cleveland Center
Tue 03:44:10 PM 41.5606 -80.0642 151° Southeast 269 310 8,000  Level Cleveland Center

Login

Don't have an account? Register now (free) for customized features, flight alerts, and more!